sensor_id;sensor_type;location;lat;lon;timestamp;pressure;altitude;pressure_sealevel;temperature;humidity
24440;BME280;12618;54.386;18.394;2022-08-01T07:18:14;99375.48;;;31.01;67.49
24440;BME280;12618;54.386;18.394;2022-08-01T07:20:44;99374.16;;;30.62;62.95
24440;BME280;12618;54.386;18.394;2022-08-01T07:23:16;99381.27;;;30.89;61.58
24440;BME280;12618;54.386;18.394;2022-08-01T07:25:47;99384.08;;;31.11;57.34
24440;BME280;12618;54.386;18.394;2022-08-01T07:28:19;99380.71;;;30.96;56.84
24440;BME280;12618;54.386;18.394;2022-08-01T07:30:50;99381.34;;;30.98;55.61
24440;BME280;12618;54.386;18.394;2022-08-01T07:33:21;99378.63;;;31.63;56.13
24440;BME280;12618;54.386;18.394;2022-08-01T07:35:52;99375.94;;;32.01;51.70
24440;BME280;12618;54.386;18.394;2022-08-01T07:38:23;99380.23;;;32.15;51.87
24440;BME280;12618;54.386;18.394;2022-08-01T07:40:54;99374.88;;;32.24;51.29
24440;BME280;12618;54.386;18.394;2022-08-01T07:43:27;99378.76;;;32.60;50.25
24440;BME280;12618;54.386;18.394;2022-08-01T07:45:58;99384.54;;;32.76;45.73
24440;BME280;12618;54.386;18.394;2022-08-01T07:48:28;99384.29;;;33.03;45.68
24440;BME280;12618;54.386;18.394;2022-08-01T07:50:59;99382.16;;;32.30;45.71
24440;BME280;12618;54.386;18.394;2022-08-01T07:53:30;99378.09;;;32.39;46.05
24440;BME280;12618;54.386;18.394;2022-08-01T07:56:01;99377.12;;;32.59;43.32
24440;BME280;12618;54.386;18.394;2022-08-01T07:58:33;99380.05;;;32.73;40.78
24440;BME280;12618;54.386;18.394;2022-08-01T08:01:04;99380.55;;;33.15;41.37
24440;BME280;12618;54.386;18.394;2022-08-01T08:03:35;99372.53;;;33.30;39.63
24440;BME280;12618;54.386;18.394;2022-08-01T08:06:06;99375.72;;;33.54;39.48
24440;BME280;12618;54.386;18.394;2022-08-01T08:08:38;99373.28;;;34.24;39.50
24440;BME280;12618;54.386;18.394;2022-08-01T08:11:09;99376.80;;;34.54;38.10
24440;BME280;12618;54.386;18.394;2022-08-01T08:13:40;99367.64;;;34.28;37.09
24440;BME280;12618;54.386;18.394;2022-08-01T08:16:11;99379.36;;;34.79;37.41
24440;BME280;12618;54.386;18.394;2022-08-01T08:18:42;99371.45;;;35.29;34.19
24440;BME280;12618;54.386;18.394;2022-08-01T08:21:13;99375.27;;;35.28;33.91
24440;BME280;12618;54.386;18.394;2022-08-01T08:23:44;99366.66;;;35.36;33.50
24440;BME280;12618;54.386;18.394;2022-08-01T08:26:33;99371.51;;;35.20;33.74
24440;BME280;12618;54.386;18.394;2022-08-01T08:29:03;99379.02;;;34.66;32.31
24440;BME280;12618;54.386;18.394;2022-08-01T08:31:34;99380.80;;;34.73;31.70
24440;BME280;12618;54.386;18.394;2022-08-01T08:34:05;99371.23;;;34.96;32.52
24440;BME280;12618;54.386;18.394;2022-08-01T08:36:36;99370.56;;;35.26;31.60
24440;BME280;12618;54.386;18.394;2022-08-01T08:39:07;99369.52;;;35.42;30.66
24440;BME280;12618;54.386;18.394;2022-08-01T08:41:38;99373.45;;;35.60;31.03
24440;BME280;12618;54.386;18.394;2022-08-01T08:44:10;99373.26;;;35.75;30.91
24440;BME280;12618;54.386;18.394;2022-08-01T08:46:43;99375.66;;;36.00;30.52
24440;BME280;12618;54.386;18.394;2022-08-01T08:49:23;99379.96;;;36.10;29.86
24440;BME280;12618;54.386;18.394;2022-08-01T08:51:57;99379.42;;;36.11;30.09
24440;BME280;12618;54.386;18.394;2022-08-01T08:54:31;99378.66;;;36.16;29.27
24440;BME280;12618;54.386;18.394;2022-08-01T08:57:03;99373.13;;;36.27;29.62
24440;BME280;12618;54.386;18.394;2022-08-01T08:59:34;99373.13;;;36.27;29.62
24440;BME280;12618;54.386;18.394;2022-08-01T09:02:05;99381.03;;;36.71;29.03
24440;BME280;12618;54.386;18.394;2022-08-01T09:04:38;99386.34;;;37.14;26.48
24440;BME280;12618;54.386;18.394;2022-08-01T09:07:10;99374.45;;;36.25;26.05
24440;BME280;12618;54.386;18.394;2022-08-01T09:09:43;99364.04;;;36.12;27.74
24440;BME280;12618;54.386;18.394;2022-08-01T09:12:16;99374.41;;;36.70;27.40
24440;BME280;12618;54.386;18.394;2022-08-01T09:14:48;99373.97;;;36.95;26.95
24440;BME280;12618;54.386;18.394;2022-08-01T09:17:20;99374.16;;;36.71;26.70
24440;BME280;12618;54.386;18.394;2022-08-01T09:19:54;99383.46;;;36.37;26.23
24440;BME280;12618;54.386;18.394;2022-08-01T09:22:25;99377.30;;;36.01;26.20
24440;BME280;12618;54.386;18.394;2022-08-01T09:25:04;99374.55;;;36.01;26.13
24440;BME280;12618;54.386;18.394;2022-08-01T09:27:37;99378.48;;;36.34;26.23
24440;BME280;12618;54.386;18.394;2022-08-01T09:30:13;99379.31;;;36.06;26.17
24440;BME280;12618;54.386;18.394;2022-08-01T09:32:59;99380.59;;;35.47;26.04
24440;BME280;12618;54.386;18.394;2022-08-01T09:35:34;99371.38;;;35.15;26.20
24440;BME280;12618;54.386;18.394;2022-08-01T09:40:50;99370.24;;;34.02;26.73
24440;BME280;12618;54.386;18.394;2022-08-01T09:43:26;99378.59;;;33.77;26.85
24440;BME280;12618;54.386;18.394;2022-08-01T09:45:58;99369.89;;;33.80;26.39
24440;BME280;12618;54.386;18.394;2022-08-01T09:48:29;99371.99;;;33.57;26.12
24440;BME280;12618;54.386;18.394;2022-08-01T09:51:02;99371.28;;;33.07;26.12
24440;BME280;12618;54.386;18.394;2022-08-01T09:53:42;99371.36;;;32.67;26.34
24440;BME280;12618;54.386;18.394;2022-08-01T09:56:14;99367.80;;;32.26;26.60
24440;BME280;12618;54.386;18.394;2022-08-01T09:58:56;99368.84;;;31.77;26.60
24440;BME280;12618;54.386;18.394;2022-08-01T10:01:41;99372.75;;;31.15;25.86
24440;BME280;12618;54.386;18.394;2022-08-01T10:04:15;99374.47;;;30.36;26.03
24440;BME280;12618;54.386;18.394;2022-08-01T10:06:50;99370.25;;;29.84;26.48
24440;BME280;12618;54.386;18.394;2022-08-01T10:09:31;99374.47;;;29.56;27.12
24440;BME280;12618;54.386;18.394;2022-08-01T10:12:03;99376.66;;;30.44;27.58
24440;BME280;12618;54.386;18.394;2022-08-01T10:14:36;99373.71;;;30.85;27.35
24440;BME280;12618;54.386;18.394;2022-08-01T10:17:09;99370.02;;;31.01;26.87
24440;BME280;12618;54.386;18.394;2022-08-01T10:19:42;99368.75;;;31.46;27.20
24440;BME280;12618;54.386;18.394;2022-08-01T10:22:14;99370.98;;;31.69;26.95
24440;BME280;12618;54.386;18.394;2022-08-01T10:24:47;99368.16;;;31.82;26.72
24440;BME280;12618;54.386;18.394;2022-08-01T10:27:20;99363.17;;;32.26;26.02
24440;BME280;12618;54.386;18.394;2022-08-01T10:29:57;99369.80;;;32.52;25.21
24440;BME280;12618;54.386;18.394;2022-08-01T10:32:31;99369.99;;;32.67;25.68
24440;BME280;12618;54.386;18.394;2022-08-01T10:35:04;99369.30;;;32.96;25.18
24440;BME280;12618;54.386;18.394;2022-08-01T10:37:35;99373.03;;;32.68;24.70
24440;BME280;12618;54.386;18.394;2022-08-01T10:40:06;99365.94;;;31.88;25.85
24440;BME280;12618;54.386;18.394;2022-08-01T10:42:40;99361.25;;;31.57;25.82
24440;BME280;12618;54.386;18.394;2022-08-01T10:45:14;99360.20;;;31.36;25.86
24440;BME280;12618;54.386;18.394;2022-08-01T10:50:35;99362.11;;;32.27;26.25
24440;BME280;12618;54.386;18.394;2022-08-01T10:53:15;99359.78;;;32.46;26.05
24440;BME280;12618;54.386;18.394;2022-08-01T10:56:06;99363.59;;;32.64;25.77
24440;BME280;12618;54.386;18.394;2022-08-01T10:58:29;99362.61;;;32.58;25.92
24440;BME280;12618;54.386;18.394;2022-08-01T11:01:16;99361.66;;;32.21;25.94
24440;BME280;12618;54.386;18.394;2022-08-01T11:12:00;99360.77;;;31.16;26.13
24440;BME280;12618;54.386;18.394;2022-08-01T11:14:33;99363.31;;;31.04;26.09
24440;BME280;12618;54.386;18.394;2022-08-01T11:17:34;99361.39;;;30.69;26.49
24440;BME280;12618;54.386;18.394;2022-08-01T11:20:14;99355.70;;;30.44;26.83
24440;BME280;12618;54.386;18.394;2022-08-01T11:36:17;99363.02;;;29.43;27.86
24440;BME280;12618;54.386;18.394;2022-08-01T11:41:37;99364.30;;;29.47;31.65
24440;BME280;12618;54.386;18.394;2022-08-01T11:44:13;99369.00;;;30.23;32.47
24440;BME280;12618;54.386;18.394;2022-08-01T11:46:55;99372.67;;;30.33;32.45
24440;BME280;12618;54.386;18.394;2022-08-01T11:49:29;99372.08;;;29.63;33.27
24440;BME280;12618;54.386;18.394;2022-08-01T11:52:08;99375.66;;;28.88;34.63
24440;BME280;12618;54.386;18.394;2022-08-01T11:57:21;99374.72;;;27.53;35.03
24440;BME280;12618;54.386;18.394;2022-08-01T11:59:54;99370.52;;;27.66;35.58
24440;BME280;12618;54.386;18.394;2022-08-01T12:02:28;99372.37;;;28.01;36.20
24440;BME280;12618;54.386;18.394;2022-08-01T12:05:07;99377.65;;;27.88;37.04
24440;BME280;12618;54.386;18.394;2022-08-01T12:07:39;99371.35;;;27.51;37.58
24440;BME280;12618;54.386;18.394;2022-08-01T12:10:14;99367.90;;;27.72;37.83
24440;BME280;12618;54.386;18.394;2022-08-01T12:15:23;99372.69;;;28.45;37.56
24440;BME280;12618;54.386;18.394;2022-08-01T12:17:59;99375.27;;;28.91;36.73
24440;BME280;12618;54.386;18.394;2022-08-01T12:20:36;99369.58;;;28.86;36.79
24440;BME280;12618;54.386;18.394;2022-08-01T12:23:09;99369.77;;;28.85;36.99
24440;BME280;12618;54.386;18.394;2022-08-01T12:25:41;99371.56;;;29.06;36.25
24440;BME280;12618;54.386;18.394;2022-08-01T12:28:13;99371.02;;;28.61;37.02
24440;BME280;12618;54.386;18.394;2022-08-01T12:30:47;99366.89;;;28.65;37.27
24440;BME280;12618;54.386;18.394;2022-08-01T12:33:19;99374.63;;;28.89;36.75
24440;BME280;12618;54.386;18.394;2022-08-01T12:35:51;99366.38;;;28.38;36.87
24440;BME280;12618;54.386;18.394;2022-08-01T12:38:23;99370.39;;;27.74;38.41
24440;BME280;12618;54.386;18.394;2022-08-01T12:40:55;99363.89;;;27.28;37.95
24440;BME280;12618;54.386;18.394;2022-08-01T12:43:27;99371.34;;;26.63;39.13
24440;BME280;12618;54.386;18.394;2022-08-01T12:46:00;99371.25;;;26.57;39.27
24440;BME280;12618;54.386;18.394;2022-08-01T12:48:37;99375.07;;;26.62;39.48
24440;BME280;12618;54.386;18.394;2022-08-01T12:51:09;99370.32;;;26.64;39.47
24440;BME280;12618;54.386;18.394;2022-08-01T12:53:43;99376.70;;;26.71;40.33
24440;BME280;12618;54.386;18.394;2022-08-01T12:56:14;99369.47;;;26.49;40.33
24440;BME280;12618;54.386;18.394;2022-08-01T12:58:45;99380.61;;;26.31;40.98
24440;BME280;12618;54.386;18.394;2022-08-01T13:01:24;99378.55;;;26.10;40.65
24440;BME280;12618;54.386;18.394;2022-08-01T13:04:00;99377.95;;;26.00;41.43
24440;BME280;12618;54.386;18.394;2022-08-01T13:06:33;99384.13;;;25.86;42.38
24440;BME280;12618;54.386;18.394;2022-08-01T13:09:06;99376.73;;;25.84;43.29
24440;BME280;12618;54.386;18.394;2022-08-01T13:11:37;99384.50;;;25.83;42.64
24440;BME280;12618;54.386;18.394;2022-08-01T13:14:09;99377.95;;;26.00;43.61
24440;BME280;12618;54.386;18.394;2022-08-01T13:16:47;99385.81;;;25.87;43.48
24440;BME280;12618;54.386;18.394;2022-08-01T13:19:18;99373.23;;;25.98;43.68
24440;BME280;12618;54.386;18.394;2022-08-01T13:21:56;99391.38;;;26.39;43.65
24440;BME280;12618;54.386;18.394;2022-08-01T13:24:28;99389.13;;;26.43;43.32
24440;BME280;12618;54.386;18.394;2022-08-01T13:27:01;99391.06;;;26.53;44.41
24440;BME280;12618;54.386;18.394;2022-08-01T13:29:37;99398.80;;;26.60;44.39
24440;BME280;12618;54.386;18.394;2022-08-01T13:32:13;99392.31;;;26.84;44.14
24440;BME280;12618;54.386;18.394;2022-08-01T13:34:44;99389.15;;;26.76;43.59
24440;BME280;12618;54.386;18.394;2022-08-01T13:37:15;99393.30;;;26.68;44.15
24440;BME280;12618;54.386;18.394;2022-08-01T13:39:46;99398.06;;;26.29;43.90
24440;BME280;12618;54.386;18.394;2022-08-01T13:42:17;99403.31;;;25.99;44.67
24440;BME280;12618;54.386;18.394;2022-08-01T13:44:49;99397.20;;;25.74;45.09
24440;BME280;12618;54.386;18.394;2022-08-01T13:47:20;99400.11;;;25.73;45.19
24440;BME280;12618;54.386;18.394;2022-08-01T13:49:50;99408.91;;;25.67;46.17
24440;BME280;12618;54.386;18.394;2022-08-01T13:52:21;99409.64;;;25.61;46.04
24440;BME280;12618;54.386;18.394;2022-08-01T13:54:52;99418.23;;;25.56;46.78
24440;BME280;12618;54.386;18.394;2022-08-01T13:57:23;99411.36;;;25.42;46.21
24440;BME280;12618;54.386;18.394;2022-08-01T13:59:55;99415.02;;;25.14;46.82
24440;BME280;12618;54.386;18.394;2022-08-01T14:02:28;99423.69;;;24.93;47.86
24440;BME280;12618;54.386;18.394;2022-08-01T14:04:59;99421.01;;;24.60;50.28
24440;BME280;12618;54.386;18.394;2022-08-01T14:07:31;99422.20;;;24.50;49.25
24440;BME280;12618;54.386;18.394;2022-08-01T14:10:02;99427.91;;;24.43;51.73
24440;BME280;12618;54.386;18.394;2022-08-01T14:12:35;99422.34;;;24.24;49.95
24440;BME280;12618;54.386;18.394;2022-08-01T14:15:07;99421.67;;;24.22;50.04
24440;BME280;12618;54.386;18.394;2022-08-01T14:17:38;99428.42;;;24.34;51.88
24440;BME280;12618;54.386;18.394;2022-08-01T14:20:09;99433.49;;;24.29;50.79
24440;BME280;12618;54.386;18.394;2022-08-01T14:22:40;99424.55;;;24.24;51.29
24440;BME280;12618;54.386;18.394;2022-08-01T14:25:11;99426.39;;;24.24;51.94
24440;BME280;12618;54.386;18.394;2022-08-01T14:27:42;99421.28;;;24.09;51.32
24440;BME280;12618;54.386;18.394;2022-08-01T14:30:13;99423.70;;;24.36;51.31
24440;BME280;12618;54.386;18.394;2022-08-01T14:32:44;99432.46;;;24.54;51.29
24440;BME280;12618;54.386;18.394;2022-08-01T14:35:15;99428.41;;;24.54;51.72
24440;BME280;12618;54.386;18.394;2022-08-01T14:37:46;99421.85;;;24.37;52.36
24440;BME280;12618;54.386;18.394;2022-08-01T14:40:18;99426.06;;;24.27;52.78
24440;BME280;12618;54.386;18.394;2022-08-01T14:42:49;99433.48;;;24.45;52.30
24440;BME280;12618;54.386;18.394;2022-08-01T14:45:20;99434.50;;;24.28;52.50
24440;BME280;12618;54.386;18.394;2022-08-01T14:47:51;99431.73;;;24.20;52.78
24440;BME280;12618;54.386;18.394;2022-08-01T14:50:22;99437.34;;;24.22;52.75
24440;BME280;12618;54.386;18.394;2022-08-01T14:52:54;99440.22;;;24.33;53.57
24440;BME280;12618;54.386;18.394;2022-08-01T14:55:29;99444.63;;;24.50;53.65
24440;BME280;12618;54.386;18.394;2022-08-01T14:57:59;99444.95;;;24.72;54.13
24440;BME280;12618;54.386;18.394;2022-08-01T15:00:30;99448.66;;;24.71;53.72
24440;BME280;12618;54.386;18.394;2022-08-01T15:03:01;99455.56;;;24.81;53.75
24440;BME280;12618;54.386;18.394;2022-08-01T15:05:32;99455.73;;;25.04;53.50
24440;BME280;12618;54.386;18.394;2022-08-01T15:08:03;99457.89;;;25.09;53.45
24440;BME280;12618;54.386;18.394;2022-08-01T15:10:36;99458.91;;;25.16;53.34
24440;BME280;12618;54.386;18.394;2022-08-01T15:13:07;99455.70;;;25.12;52.94
24440;BME280;12618;54.386;18.394;2022-08-01T15:15:38;99459.25;;;25.17;53.68
24440;BME280;12618;54.386;18.394;2022-08-01T15:18:08;99463.85;;;24.96;53.30
24440;BME280;12618;54.386;18.394;2022-08-01T15:20:39;99460.98;;;24.93;53.93
24440;BME280;12618;54.386;18.394;2022-08-01T15:23:11;99463.17;;;24.94;53.44
24440;BME280;12618;54.386;18.394;2022-08-01T15:25:42;99466.67;;;25.11;53.45
24440;BME280;12618;54.386;18.394;2022-08-01T15:28:12;99461.95;;;25.17;53.04
24440;BME280;12618;54.386;18.394;2022-08-01T15:30:43;99470.39;;;25.18;53.04
24440;BME280;12618;54.386;18.394;2022-08-01T15:33:15;99461.10;;;25.08;54.16
24440;BME280;12618;54.386;18.394;2022-08-01T15:35:47;99458.92;;;24.75;53.50
24440;BME280;12618;54.386;18.394;2022-08-01T15:38:18;99458.44;;;24.84;54.03
24440;BME280;12618;54.386;18.394;2022-08-01T15:40:52;99462.48;;;24.84;53.96
24440;BME280;12618;54.386;18.394;2022-08-01T15:43:22;99456.73;;;24.91;54.00
24440;BME280;12618;54.386;18.394;2022-08-01T15:45:53;99459.62;;;24.85;54.27
24440;BME280;12618;54.386;18.394;2022-08-01T15:48:24;99459.13;;;24.94;54.18
24440;BME280;12618;54.386;18.394;2022-08-01T15:50:57;99452.37;;;24.94;53.85
24440;BME280;12618;54.386;18.394;2022-08-01T15:53:27;99457.61;;;24.95;54.35
24440;BME280;12618;54.386;18.394;2022-08-01T15:55:58;99458.75;;;24.89;54.48
24440;BME280;12618;54.386;18.394;2022-08-01T15:58:29;99455.06;;;24.70;54.58
24440;BME280;12618;54.386;18.394;2022-08-01T16:01:00;99456.75;;;24.66;54.52
24440;BME280;12618;54.386;18.394;2022-08-01T16:03:31;99459.13;;;24.74;55.31
24440;BME280;12618;54.386;18.394;2022-08-01T16:06:02;99459.77;;;24.76;55.31
24440;BME280;12618;54.386;18.394;2022-08-01T16:08:33;99460.63;;;24.80;54.93
24440;BME280;12618;54.386;18.394;2022-08-01T16:11:04;99468.90;;;24.58;55.15
24440;BME280;12618;54.386;18.394;2022-08-01T16:13:35;99468.89;;;24.30;55.36
24440;BME280;12618;54.386;18.394;2022-08-01T16:16:09;99469.22;;;24.35;55.58
24440;BME280;12618;54.386;18.394;2022-08-01T16:18:44;99463.59;;;24.12;55.54
24440;BME280;12618;54.386;18.394;2022-08-01T16:21:20;99469.84;;;24.17;56.75
24440;BME280;12618;54.386;18.394;2022-08-01T16:23:53;99460.73;;;24.14;56.42
24440;BME280;12618;54.386;18.394;2022-08-01T16:26:24;99460.57;;;24.15;56.08
24440;BME280;12618;54.386;18.394;2022-08-01T16:28:55;99473.55;;;24.16;55.97
24440;BME280;12618;54.386;18.394;2022-08-01T16:31:27;99471.92;;;24.27;56.57
24440;BME280;12618;54.386;18.394;2022-08-01T16:33:59;99470.01;;;24.15;56.23
24440;BME280;12618;54.386;18.394;2022-08-01T16:36:29;99468.48;;;24.13;56.49
24440;BME280;12618;54.386;18.394;2022-08-01T16:39:00;99472.84;;;24.10;56.35
24440;BME280;12618;54.386;18.394;2022-08-01T16:44:02;99471.41;;;23.77;57.17
24440;BME280;12618;54.386;18.394;2022-08-01T16:46:33;99477.16;;;23.74;56.93
24440;BME280;12618;54.386;18.394;2022-08-01T16:49:04;99475.11;;;23.76;57.41
24440;BME280;12618;54.386;18.394;2022-08-01T16:51:35;99479.18;;;23.80;56.74
24440;BME280;12618;54.386;18.394;2022-08-01T16:54:09;99483.22;;;23.80;57.48
24440;BME280;12618;54.386;18.394;2022-08-01T16:56:40;99491.45;;;23.71;58.12
24440;BME280;12618;54.386;18.394;2022-08-01T16:59:11;99487.38;;;23.37;58.01
24440;BME280;12618;54.386;18.394;2022-08-01T17:01:42;99492.04;;;23.27;58.11
24440;BME280;12618;54.386;18.394;2022-08-01T17:04:13;99492.66;;;23.20;58.45
24440;BME280;12618;54.386;18.394;2022-08-01T17:06:43;99493.42;;;23.09;59.09
24440;BME280;12618;54.386;18.394;2022-08-01T17:09:15;99497.30;;;23.06;59.47
24440;BME280;12618;54.386;18.394;2022-08-01T17:11:46;99491.44;;;22.85;59.24
24440;BME280;12618;54.386;18.394;2022-08-01T17:14:17;99496.13;;;22.87;59.49
24440;BME280;12618;54.386;18.394;2022-08-01T17:16:48;99501.56;;;22.73;59.61
24440;BME280;12618;54.386;18.394;2022-08-01T17:19:19;99504.59;;;22.57;60.79
24440;BME280;12618;54.386;18.394;2022-08-01T17:21:50;99496.12;;;22.47;60.78
24440;BME280;12618;54.386;18.394;2022-08-01T17:24:20;99507.75;;;22.34;61.64
24440;BME280;12618;54.386;18.394;2022-08-01T17:26:51;99513.84;;;22.05;62.88
24440;BME280;12618;54.386;18.394;2022-08-01T17:29:22;99504.27;;;21.79;63.44
24440;BME280;12618;54.386;18.394;2022-08-01T17:31:53;99513.28;;;21.74;63.51
24440;BME280;12618;54.386;18.394;2022-08-01T17:34:23;99515.95;;;21.60;63.03
24440;BME280;12618;54.386;18.394;2022-08-01T17:36:54;99517.88;;;21.54;63.09
24440;BME280;12618;54.386;18.394;2022-08-01T17:39:25;99521.87;;;21.50;63.38
24440;BME280;12618;54.386;18.394;2022-08-01T17:41:56;99521.67;;;21.61;62.95
24440;BME280;12618;54.386;18.394;2022-08-01T17:44:27;99520.27;;;21.57;62.58
24440;BME280;12618;54.386;18.394;2022-08-01T17:46:58;99522.55;;;21.66;62.78
24440;BME280;12618;54.386;18.394;2022-08-01T17:49:29;99523.02;;;21.61;63.01
24440;BME280;12618;54.386;18.394;2022-08-01T17:52:00;99524.58;;;21.54;63.52
24440;BME280;12618;54.386;18.394;2022-08-01T17:54:30;99525.19;;;21.48;63.42
24440;BME280;12618;54.386;18.394;2022-08-01T17:57:01;99522.92;;;21.53;63.61
24440;BME280;12618;54.386;18.394;2022-08-01T17:59:32;99531.27;;;21.50;63.69
24440;BME280;12618;54.386;18.394;2022-08-01T18:02:03;99531.62;;;21.51;63.49
24440;BME280;12618;54.386;18.394;2022-08-01T18:04:34;99530.13;;;21.53;63.54
24440;BME280;12618;54.386;18.394;2022-08-01T18:07:04;99534.34;;;21.55;63.50
24440;BME280;12618;54.386;18.394;2022-08-01T18:09:35;99537.73;;;21.57;63.61
24440;BME280;12618;54.386;18.394;2022-08-01T18:12:07;99538.36;;;21.55;63.80
24440;BME280;12618;54.386;18.394;2022-08-01T18:14:38;99539.25;;;21.46;63.53
24440;BME280;12618;54.386;18.394;2022-08-01T18:17:09;99530.38;;;21.36;63.91
24440;BME280;12618;54.386;18.394;2022-08-01T18:19:41;99545.16;;;21.36;63.94
24440;BME280;12618;54.386;18.394;2022-08-01T18:22:12;99541.48;;;21.37;63.81
24440;BME280;12618;54.386;18.394;2022-08-01T18:24:43;99542.25;;;21.33;63.86
24440;BME280;12618;54.386;18.394;2022-08-01T18:27:14;99546.84;;;21.37;63.89
24440;BME280;12618;54.386;18.394;2022-08-01T18:29:45;99543.67;;;21.37;64.05
24440;BME280;12618;54.386;18.394;2022-08-01T18:32:16;99551.16;;;21.34;64.00
24440;BME280;12618;54.386;18.394;2022-08-01T18:34:47;99557.13;;;21.28;64.17
24440;BME280;12618;54.386;18.394;2022-08-01T18:37:18;99556.02;;;21.21;64.05
24440;BME280;12618;54.386;18.394;2022-08-01T18:39:49;99553.79;;;21.11;64.22
24440;BME280;12618;54.386;18.394;2022-08-01T18:42:19;99561.44;;;21.05;64.53
24440;BME280;12618;54.386;18.394;2022-08-01T18:44:50;99566.37;;;21.00;64.68
24440;BME280;12618;54.386;18.394;2022-08-01T18:47:21;99566.96;;;20.94;64.89
24440;BME280;12618;54.386;18.394;2022-08-01T18:49:55;99570.20;;;20.88;64.88
24440;BME280;12618;54.386;18.394;2022-08-01T18:52:26;99570.02;;;20.76;65.08
24440;BME280;12618;54.386;18.394;2022-08-01T18:55:00;99571.55;;;20.69;64.95
24440;BME280;12618;54.386;18.394;2022-08-01T18:57:31;99566.19;;;20.59;65.06
24440;BME280;12618;54.386;18.394;2022-08-01T19:00:02;99579.51;;;20.55;65.21
24440;BME280;12618;54.386;18.394;2022-08-01T19:02:34;99585.31;;;20.51;65.41
24440;BME280;12618;54.386;18.394;2022-08-01T19:05:05;99584.86;;;20.46;65.16
24440;BME280;12618;54.386;18.394;2022-08-01T19:07:36;99594.19;;;20.42;65.64
24440;BME280;12618;54.386;18.394;2022-08-01T19:10:07;99589.59;;;20.32;65.67
24440;BME280;12618;54.386;18.394;2022-08-01T19:12:45;99598.61;;;20.22;65.97
24440;BME280;12618;54.386;18.394;2022-08-01T19:15:15;99593.81;;;20.16;65.93
24440;BME280;12618;54.386;18.394;2022-08-01T19:17:46;99599.73;;;20.10;66.33
24440;BME280;12618;54.386;18.394;2022-08-01T19:20:17;99601.11;;;20.04;66.19
24440;BME280;12618;54.386;18.394;2022-08-01T19:22:48;99601.92;;;19.95;66.51
24440;BME280;12618;54.386;18.394;2022-08-01T19:25:18;99600.84;;;19.92;66.86
24440;BME280;12618;54.386;18.394;2022-08-01T19:27:49;99603.98;;;19.82;66.90
24440;BME280;12618;54.386;18.394;2022-08-01T19:30:20;99613.55;;;19.75;66.87
24440;BME280;12618;54.386;18.394;2022-08-01T19:32:53;99612.66;;;19.65;67.08
24440;BME280;12618;54.386;18.394;2022-08-01T19:35:25;99616.31;;;19.63;66.99
24440;BME280;12618;54.386;18.394;2022-08-01T19:37:56;99618.77;;;19.55;68.39
24440;BME280;12618;54.386;18.394;2022-08-01T19:40:28;99614.45;;;19.49;67.35
24440;BME280;12618;54.386;18.394;2022-08-01T19:43:01;99614.80;;;19.44;67.66
24440;BME280;12618;54.386;18.394;2022-08-01T19:45:33;99619.90;;;19.32;68.16
24440;BME280;12618;54.386;18.394;2022-08-01T19:48:05;99619.90;;;19.32;68.16
24440;BME280;12618;54.386;18.394;2022-08-01T19:50:37;99619.42;;;19.27;68.36
24440;BME280;12618;54.386;18.394;2022-08-01T19:53:10;99626.86;;;19.23;68.33
24440;BME280;12618;54.386;18.394;2022-08-01T19:55:43;99627.27;;;19.19;68.65
24440;BME280;12618;54.386;18.394;2022-08-01T19:58:17;99634.50;;;19.07;69.24
24440;BME280;12618;54.386;18.394;2022-08-01T20:00:49;99621.78;;;19.00;69.30
24440;BME280;12618;54.386;18.394;2022-08-01T20:03:21;99624.45;;;19.00;68.96
24440;BME280;12618;54.386;18.394;2022-08-01T20:05:52;99618.63;;;18.95;69.46
24440;BME280;12618;54.386;18.394;2022-08-01T20:08:24;99626.65;;;18.95;69.21
24440;BME280;12618;54.386;18.394;2022-08-01T20:10:57;99629.57;;;18.91;69.36
24440;BME280;12618;54.386;18.394;2022-08-01T20:13:29;99623.78;;;18.86;69.50
24440;BME280;12618;54.386;18.394;2022-08-01T20:16:02;99626.20;;;18.84;70.01
24440;BME280;12618;54.386;18.394;2022-08-01T20:18:34;99630.34;;;18.82;70.07
24440;BME280;12618;54.386;18.394;2022-08-01T20:21:05;99627.30;;;18.81;69.86
24440;BME280;12618;54.386;18.394;2022-08-01T20:23:39;99625.37;;;18.78;70.01
24440;BME280;12618;54.386;18.394;2022-08-01T20:26:15;99631.56;;;18.78;70.30
24440;BME280;12618;54.386;18.394;2022-08-01T20:28:48;99630.22;;;18.78;70.42
24440;BME280;12618;54.386;18.394;2022-08-01T20:31:20;99639.25;;;18.72;71.04
24440;BME280;12618;54.386;18.394;2022-08-01T20:33:53;99637.19;;;18.70;71.27
24440;BME280;12618;54.386;18.394;2022-08-01T20:36:24;99629.94;;;18.66;71.26
24440;BME280;12618;54.386;18.394;2022-08-01T20:38:56;99633.67;;;18.69;71.51
24440;BME280;12618;54.386;18.394;2022-08-01T20:41:27;99639.98;;;18.68;71.30
24440;BME280;12618;54.386;18.394;2022-08-01T20:43:58;99637.59;;;18.65;71.38
24440;BME280;12618;54.386;18.394;2022-08-01T20:46:28;99641.97;;;18.66;71.40
24440;BME280;12618;54.386;18.394;2022-08-01T20:48:59;99638.92;;;18.65;71.56
24440;BME280;12618;54.386;18.394;2022-08-01T20:51:30;99634.80;;;18.61;71.54
24440;BME280;12618;54.386;18.394;2022-08-01T20:54:02;99639.41;;;18.53;71.70
24440;BME280;12618;54.386;18.394;2022-08-01T20:56:43;99642.81;;;18.50;71.67
24440;BME280;12618;54.386;18.394;2022-08-01T20:59:28;99644.02;;;18.46;71.65
24440;BME280;12618;54.386;18.394;2022-08-01T21:04:39;99641.50;;;18.39;72.10
24440;BME280;12618;54.386;18.394;2022-08-01T21:09:52;99647.81;;;18.38;72.37
24440;BME280;12618;54.386;18.394;2022-08-01T21:12:27;99645.26;;;18.36;72.39
24440;BME280;12618;54.386;18.394;2022-08-01T21:15:03;99648.41;;;18.36;73.02
24440;BME280;12618;54.386;18.394;2022-08-01T21:20:15;99652.33;;;18.32;74.29